createdAt,value
2018-04-11T00:01:41.288Z,31.73
2018-04-11T00:04:09.628Z,32.07
2018-04-11T00:06:37.683Z,30.70
2018-04-11T00:09:05.239Z,31.63
2018-04-11T00:11:32.720Z,31.87
2018-04-11T00:14:00.362Z,32.00
2018-04-11T00:16:27.872Z,32.63
2018-04-11T00:18:55.447Z,32.33
2018-04-11T00:21:23.064Z,32.07
2018-04-11T00:23:50.609Z,31.17
2018-04-11T00:26:18.144Z,30.80
2018-04-11T00:28:45.708Z,31.53
2018-04-11T00:31:13.191Z,32.07
2018-04-11T00:33:40.738Z,31.67
2018-04-11T00:36:08.214Z,32.53
2018-04-11T00:38:35.709Z,31.53
2018-04-11T00:41:03.206Z,31.20
2018-04-11T00:43:30.715Z,31.73
2018-04-11T00:45:58.213Z,30.63
2018-04-11T00:48:27.300Z,31.60
2018-04-11T00:50:54.868Z,31.77
2018-04-11T00:53:27.405Z,31.00
2018-04-11T00:55:54.911Z,31.37
2018-04-11T00:58:22.476Z,29.83
2018-04-11T01:00:49.997Z,31.07
2018-04-11T01:03:17.604Z,31.73
2018-04-11T01:05:45.092Z,30.83
2018-04-11T01:08:12.839Z,32.40
2018-04-11T01:10:41.269Z,30.10
2018-04-11T01:13:09.517Z,30.80
2018-04-11T01:15:37.019Z,30.07
2018-04-11T01:18:04.533Z,31.30
2018-04-11T01:20:32.840Z,31.10
2018-04-11T01:23:01.069Z,28.50
2018-04-11T01:25:28.597Z,30.83
2018-04-11T01:27:56.089Z,29.33
2018-04-11T01:30:23.612Z,30.50
2018-04-11T01:32:51.103Z,30.30
2018-04-11T01:35:18.664Z,30.90
2018-04-11T01:37:46.135Z,31.00
2018-04-11T01:40:13.637Z,30.53
2018-04-11T01:42:41.248Z,31.27
2018-04-11T01:45:08.840Z,30.90
2018-04-11T01:47:37.221Z,31.50
2018-04-11T01:50:05.480Z,30.07
2018-04-11T01:52:32.983Z,31.43
2018-04-11T01:55:00.505Z,29.40
2018-04-11T01:57:28.768Z,31.17
2018-04-11T01:59:56.271Z,30.17
2018-04-11T02:02:23.737Z,30.50
2018-04-11T02:04:51.248Z,31.00
2018-04-11T02:07:18.744Z,31.80
2018-04-11T02:09:46.268Z,30.80
2018-04-11T02:12:13.765Z,31.43
2018-04-11T02:14:41.266Z,30.30
2018-04-11T02:17:08.770Z,29.93
2018-04-11T02:19:37.063Z,32.67
2018-04-11T02:22:04.649Z,31.07
2018-04-11T02:24:32.141Z,29.07
2018-04-11T02:26:59.653Z,29.17
2018-04-11T02:29:27.146Z,29.90
2018-04-11T02:31:54.687Z,30.27
2018-04-11T02:34:22.164Z,31.30
2018-04-11T02:36:49.634Z,29.53
2018-04-11T02:39:17.807Z,30.30
2018-04-11T02:41:45.320Z,30.33
2018-04-11T02:44:12.826Z,30.03
2018-04-11T02:46:40.300Z,31.33
2018-04-11T02:49:07.821Z,29.60
2018-04-11T02:51:35.331Z,30.13
2018-04-11T02:54:02.814Z,30.07
2018-04-11T02:56:30.309Z,28.80
2018-04-11T02:58:57.820Z,29.93
2018-04-11T03:01:25.453Z,28.10
2018-04-11T03:03:53.680Z,29.53
2018-04-11T03:06:21.175Z,30.53
2018-04-11T03:08:48.643Z,29.00
2018-04-11T03:11:16.933Z,30.63
2018-04-11T03:13:45.232Z,30.77
2018-04-11T03:16:12.756Z,29.77
2018-04-11T03:18:40.971Z,29.70
2018-04-11T03:21:08.450Z,29.43
2018-04-11T03:23:35.937Z,30.67
2018-04-11T03:26:03.483Z,31.10
2018-04-11T03:28:30.982Z,30.17
2018-04-11T03:30:58.471Z,30.30
2018-04-11T03:33:26.093Z,29.80
2018-04-11T03:35:53.604Z,30.50
2018-04-11T03:38:21.106Z,29.60
2018-04-11T03:40:49.371Z,29.70
2018-04-11T03:43:16.954Z,28.93
2018-04-11T03:45:45.201Z,28.97
2018-04-11T03:48:12.741Z,29.87
2018-04-11T03:50:40.236Z,30.00
2018-04-11T03:53:07.746Z,29.07
2018-04-11T03:55:35.842Z,28.27
2018-04-11T03:58:03.444Z,31.37
2018-04-11T04:00:30.893Z,29.87
2018-04-11T04:02:59.150Z,28.83
2018-04-11T04:05:26.686Z,30.33
2018-04-11T04:07:54.211Z,29.63
2018-04-11T04:10:21.692Z,30.97
2018-04-11T04:12:49.959Z,28.40
2018-04-11T04:15:29.440Z,29.70
2018-04-11T04:18:08.704Z,29.97
2018-04-11T04:20:36.955Z,30.13
2018-04-11T04:23:05.182Z,31.37
2018-04-11T04:25:32.679Z,30.03
2018-04-11T04:28:00.204Z,29.97
2018-04-11T04:30:27.724Z,30.37
2018-04-11T04:32:55.980Z,31.37
2018-04-11T04:35:23.544Z,30.90
2018-04-11T04:37:51.042Z,30.83
2018-04-11T04:40:18.569Z,30.83
2018-04-11T04:42:47.021Z,29.90
2018-04-11T04:45:14.510Z,30.33
2018-04-11T04:47:42.785Z,29.43
2018-04-11T04:50:11.161Z,29.57
2018-04-11T04:52:39.450Z,28.93
2018-04-11T04:55:07.031Z,31.00
2018-04-11T04:57:34.590Z,28.37
2018-04-11T05:00:02.866Z,28.93
2018-04-11T05:02:30.407Z,27.87
2018-04-11T05:04:58.916Z,28.50
2018-04-11T05:07:26.848Z,29.00
2018-04-11T05:09:55.414Z,29.77
2018-04-11T05:12:23.243Z,28.37
2018-04-11T05:14:50.848Z,29.53
2018-04-11T05:17:18.520Z,27.30
2018-04-11T05:19:46.067Z,26.33
2018-04-11T05:22:13.564Z,26.53
2018-04-11T05:24:41.922Z,27.30
2018-04-11T05:27:09.553Z,26.97
2018-04-11T05:29:37.128Z,26.53
2018-04-11T05:32:04.618Z,26.87
2018-04-11T05:34:32.112Z,27.43
2018-04-11T05:37:00.367Z,26.70
2018-04-11T05:39:27.894Z,27.17
2018-04-11T05:41:55.447Z,27.23
2018-04-11T05:44:23.681Z,28.07
2018-04-11T05:46:51.940Z,27.23
2018-04-11T05:49:19.458Z,26.13
2018-04-11T05:51:48.588Z,26.33
2018-04-11T05:54:16.135Z,26.57
2018-04-11T05:56:43.691Z,25.10
2018-04-11T05:59:11.243Z,25.47
2018-04-11T06:01:38.771Z,26.20
2018-04-11T06:04:06.353Z,26.47
2018-04-11T06:06:33.867Z,25.17
2018-04-11T06:09:01.359Z,24.70
2018-04-11T06:11:28.868Z,23.93
2018-04-11T06:13:56.354Z,25.93
2018-04-11T06:16:23.879Z,25.47
2018-04-11T06:18:51.370Z,24.97
2018-04-11T06:21:19.557Z,25.80
2018-04-11T06:23:47.089Z,25.77
2018-04-11T06:26:14.619Z,25.43
2018-04-11T06:28:42.182Z,26.10
2018-04-11T06:31:09.726Z,26.00
2018-04-11T06:33:37.248Z,25.60
2018-04-11T06:36:04.743Z,25.20
2018-04-11T06:38:32.306Z,25.23
2018-04-11T06:41:00.712Z,26.03
2018-04-11T06:43:28.279Z,26.13
2018-04-11T06:45:55.777Z,26.23
2018-04-11T06:48:23.361Z,26.33
2018-04-11T06:50:51.629Z,25.63
2018-04-11T06:53:19.184Z,25.97
2018-04-11T06:55:46.706Z,25.03
2018-04-11T06:58:14.249Z,25.23
2018-04-11T07:00:41.761Z,23.87
2018-04-11T07:03:09.323Z,23.90
2018-04-11T07:05:37.675Z,23.67
2018-04-11T07:08:05.260Z,23.07
2018-04-11T07:10:32.863Z,23.60
2018-04-11T07:13:00.360Z,24.30
2018-04-11T07:15:27.939Z,23.20
2018-04-11T07:17:55.495Z,24.03
2018-04-11T07:20:23.004Z,24.20
2018-04-11T07:22:50.549Z,24.40
2018-04-11T07:25:18.022Z,24.30
2018-04-11T07:27:45.568Z,24.03
2018-04-11T07:30:13.122Z,24.37
2018-04-11T07:32:41.488Z,23.13
2018-04-11T07:35:09.094Z,23.83
2018-04-11T07:37:36.684Z,23.07
2018-04-11T07:40:04.260Z,22.77
2018-04-11T07:42:31.766Z,23.00
2018-04-11T07:44:59.773Z,23.03
2018-04-11T07:47:27.444Z,23.10
2018-04-11T07:49:55.142Z,24.20
2018-04-11T07:52:22.612Z,22.57
2018-04-11T07:54:50.223Z,23.37
2018-04-11T07:57:17.759Z,23.53
2018-04-11T07:59:45.296Z,22.63
2018-04-11T08:02:12.799Z,22.30
2018-04-11T08:04:40.343Z,21.07
2018-04-11T08:07:07.917Z,22.53
2018-04-11T08:09:35.399Z,22.70
2018-04-11T08:12:03.725Z,22.37
2018-04-11T08:14:31.223Z,21.47
2018-04-11T08:16:59.518Z,22.07
2018-04-11T08:19:27.780Z,21.30
2018-04-11T08:21:55.252Z,21.93
2018-04-11T08:24:23.497Z,21.17
2018-04-11T08:26:51.613Z,20.53
2018-04-11T08:29:19.125Z,21.07
2018-04-11T08:31:46.611Z,21.07
2018-04-11T08:34:14.882Z,20.07
2018-04-11T08:36:43.165Z,20.37
2018-04-11T08:39:11.677Z,19.57
2018-04-11T08:41:39.248Z,19.90
2018-04-11T08:44:06.985Z,18.97
2018-04-11T08:46:34.532Z,19.10
2018-04-11T08:49:02.803Z,20.43
2018-04-11T08:51:31.066Z,18.67
2018-04-11T08:53:58.575Z,18.67
2018-04-11T08:56:26.065Z,19.97
2018-04-11T08:58:53.571Z,19.60
2018-04-11T09:01:21.883Z,19.30
2018-04-11T09:03:49.390Z,19.77
2018-04-11T09:06:17.651Z,19.07
2018-04-11T09:08:45.143Z,18.13
2018-04-11T09:11:12.683Z,19.53
2018-04-11T09:13:40.181Z,19.80
2018-04-11T09:16:07.651Z,20.13
2018-04-11T09:18:35.142Z,18.70
2018-04-11T09:21:02.839Z,17.93
2018-04-11T09:23:30.382Z,17.60
2018-04-11T09:25:57.857Z,18.43
2018-04-11T09:28:26.219Z,18.53
2018-04-11T09:30:54.504Z,18.47
2018-04-11T09:33:23.576Z,19.20
2018-04-11T09:35:51.070Z,18.00
2018-04-11T09:38:18.572Z,18.93
2018-04-11T09:40:46.124Z,17.77
2018-04-11T09:43:13.704Z,17.83
2018-04-11T09:45:41.179Z,17.73
2018-04-11T09:48:08.676Z,17.83
2018-04-11T09:50:36.229Z,17.40
2018-04-11T09:53:03.744Z,17.17
2018-04-11T09:55:31.235Z,17.83
2018-04-11T09:57:59.537Z,18.30
2018-04-11T10:00:27.086Z,17.57
2018-04-11T10:03:01.591Z,18.03
2018-04-11T10:05:29.835Z,18.47
2018-04-11T10:07:57.331Z,18.57
2018-04-11T10:10:30.591Z,18.67
2018-04-11T10:12:58.215Z,17.73
2018-04-11T10:15:25.692Z,17.87
2018-04-11T10:17:53.215Z,18.27
2018-04-11T10:20:21.517Z,19.40
2018-04-11T10:22:49.018Z,19.93
2018-04-11T10:25:17.379Z,20.47
2018-04-11T10:27:44.914Z,19.13
2018-04-11T10:30:12.440Z,21.43
2018-04-11T10:32:40.678Z,19.60
2018-04-11T10:35:08.199Z,20.33
2018-04-11T10:37:35.709Z,21.93
2018-04-11T10:40:03.276Z,21.47
2018-04-11T10:42:30.748Z,21.63
2018-04-11T10:44:59.039Z,22.83
2018-04-11T10:47:26.548Z,23.60
2018-04-11T10:49:55.559Z,22.13
2018-04-11T10:52:23.068Z,22.37
2018-04-11T10:54:50.664Z,22.23
2018-04-11T10:57:18.177Z,22.87
2018-04-11T10:59:45.686Z,24.03
2018-04-11T11:02:13.319Z,24.60
2018-04-11T11:04:41.107Z,23.30
2018-04-11T11:07:08.612Z,23.80
2018-04-11T11:09:36.885Z,25.07
2018-04-11T11:12:04.445Z,23.83
2018-04-11T11:14:32.683Z,25.93
2018-04-11T11:17:00.175Z,24.83
2018-04-11T11:19:28.629Z,25.37
2018-04-11T11:22:00.460Z,25.60
2018-04-11T11:24:27.962Z,25.43
2018-04-11T11:26:56.216Z,25.20
2018-04-11T11:29:24.668Z,24.30
2018-04-11T11:31:52.151Z,25.63
2018-04-11T11:34:20.543Z,24.43
2018-04-11T11:36:48.038Z,24.97
2018-04-11T11:39:15.679Z,25.20
2018-04-11T11:41:43.990Z,24.33
2018-04-11T11:44:11.578Z,24.60
2018-04-11T11:46:39.087Z,23.67
2018-04-11T11:49:07.424Z,22.37
2018-04-11T11:51:35.829Z,22.70
2018-04-11T11:54:04.184Z,22.10
2018-04-11T11:56:31.897Z,22.97
2018-04-11T11:58:59.485Z,23.23
2018-04-11T12:01:27.068Z,23.23
2018-04-11T12:03:54.573Z,22.90
2018-04-11T12:06:22.120Z,22.80
2018-04-11T12:08:50.446Z,22.73
2018-04-11T12:11:17.910Z,22.73
2018-04-11T12:13:45.413Z,23.80
2018-04-11T12:16:13.677Z,23.33
2018-04-11T12:18:41.202Z,24.20
2018-04-11T12:21:08.696Z,23.50
2018-04-11T12:23:37.464Z,24.77
2018-04-11T12:26:04.951Z,26.43
2018-04-11T12:28:33.239Z,25.77
2018-04-11T12:31:00.780Z,26.87
2018-04-11T12:33:28.318Z,25.83
2018-04-11T12:35:55.878Z,25.33
2018-04-11T12:38:23.486Z,27.17
2018-04-11T12:40:51.065Z,26.20
2018-04-11T12:43:18.610Z,26.10
2018-04-11T12:45:46.150Z,26.23
2018-04-11T12:48:14.597Z,26.17
2018-04-11T12:50:42.098Z,28.37
2018-04-11T12:53:10.445Z,27.90
2018-04-11T12:55:38.051Z,29.30
2018-04-11T12:58:05.720Z,28.40
2018-04-11T13:00:33.225Z,30.07
2018-04-11T13:03:00.740Z,29.90
2018-04-11T13:05:28.237Z,30.40
2018-04-11T13:07:55.745Z,29.80
2018-04-11T13:10:23.267Z,30.10
2018-04-11T13:12:50.808Z,28.90
2018-04-11T13:15:18.290Z,30.67
2018-04-11T13:17:45.935Z,29.13
2018-04-11T13:20:13.486Z,31.00
2018-04-11T13:22:41.026Z,32.40
2018-04-11T13:25:08.512Z,31.77
2018-04-11T13:27:36.830Z,32.63
2018-04-11T13:30:05.126Z,30.13
2018-04-11T13:32:32.642Z,31.97
2018-04-11T13:35:00.173Z,29.43
2018-04-11T13:37:27.658Z,30.53
2018-04-11T13:39:55.169Z,31.23
2018-04-11T13:42:22.674Z,30.17
2018-04-11T13:44:51.476Z,32.33
2018-04-11T13:47:20.386Z,33.27
2018-04-11T13:49:47.933Z,33.40
2018-04-11T13:52:16.162Z,32.13
2018-04-11T13:54:43.676Z,33.80
2018-04-11T13:57:11.184Z,33.37
2018-04-11T13:59:38.729Z,38.07
2018-04-11T14:02:06.410Z,38.93
2018-04-11T14:04:34.600Z,39.80
2018-04-11T14:07:02.224Z,41.50
2018-04-11T14:09:29.815Z,39.53
2018-04-11T14:11:57.324Z,39.80
2018-04-11T14:14:24.923Z,41.97
2018-04-11T14:16:53.262Z,43.10
2018-04-11T14:19:21.060Z,41.97
2018-04-11T14:21:48.667Z,42.90
2018-04-11T14:24:16.924Z,41.07
2018-04-11T14:26:44.417Z,40.67
2018-04-11T14:29:12.024Z,43.17
2018-04-11T14:31:39.598Z,42.27
2018-04-11T14:34:07.100Z,43.00
2018-04-11T14:36:35.342Z,43.80
2018-04-11T14:39:03.640Z,44.03
2018-04-11T14:41:31.894Z,44.90
2018-04-11T14:43:59.406Z,44.67
2018-04-11T14:46:26.898Z,47.07
2018-04-11T14:48:54.419Z,47.63
2018-04-11T14:51:22.003Z,50.17
2018-04-11T14:53:49.541Z,47.67
2018-04-11T14:56:18.087Z,48.13
2018-04-11T14:58:46.376Z,50.50
2018-04-11T15:01:13.942Z,48.27
2018-04-11T15:03:41.603Z,48.50
2018-04-11T15:06:09.842Z,50.57
2018-04-11T15:08:37.339Z,49.30
2018-04-11T15:11:04.879Z,48.20
2018-04-11T15:13:33.177Z,47.73
2018-04-11T15:16:02.218Z,50.00
2018-04-11T15:18:29.720Z,47.47
2018-04-11T15:20:58.000Z,47.73
2018-04-11T15:23:26.331Z,48.73
2018-04-11T15:25:53.831Z,48.10
2018-04-11T15:28:22.091Z,48.40
2018-04-11T15:30:49.607Z,48.10
2018-04-11T15:33:17.177Z,48.73
2018-04-11T15:35:44.765Z,49.07
2018-04-11T15:38:12.242Z,45.90
2018-04-11T15:40:40.508Z,45.40
2018-04-11T15:43:08.017Z,46.83
2018-04-11T15:45:35.537Z,47.27
2018-04-11T15:48:03.779Z,46.47
2018-04-11T15:50:31.280Z,44.30
2018-04-11T15:52:58.925Z,43.17
2018-04-11T15:55:26.424Z,42.50
2018-04-11T15:57:53.993Z,45.87
2018-04-11T16:00:21.531Z,44.37
2018-04-11T16:02:49.093Z,46.17
2018-04-11T16:05:16.614Z,46.70
2018-04-11T16:07:44.100Z,43.40
2018-04-11T16:10:11.636Z,44.93
2018-04-11T16:12:39.127Z,44.97
2018-04-11T16:15:06.681Z,43.30
2018-04-11T16:17:34.237Z,44.37
2018-04-11T16:20:02.535Z,45.47
2018-04-11T16:22:30.015Z,45.27
2018-04-11T16:24:57.539Z,46.23
2018-04-11T16:27:25.071Z,46.60
2018-04-11T16:29:52.686Z,47.80
2018-04-11T16:32:20.213Z,46.43
2018-04-11T16:34:47.785Z,46.73
2018-04-11T16:37:15.425Z,47.10
2018-04-11T16:39:43.726Z,49.20
2018-04-11T16:42:11.227Z,46.17
2018-04-11T16:44:38.736Z,47.87
2018-04-11T16:47:06.244Z,47.67
2018-04-11T16:49:33.817Z,49.30
2018-04-11T16:52:01.949Z,45.93
2018-04-11T16:54:29.435Z,46.90
2018-04-11T16:56:56.944Z,48.10
2018-04-11T16:59:24.444Z,47.50
2018-04-11T17:01:51.936Z,47.50
2018-04-11T17:04:21.250Z,45.27
2018-04-11T17:06:48.800Z,44.83
2018-04-11T17:09:17.163Z,43.43
2018-04-11T17:11:44.724Z,44.63
2018-04-11T17:14:13.033Z,44.43
2018-04-11T17:16:40.540Z,45.70
2018-04-11T17:19:08.068Z,44.77
2018-04-11T17:21:47.804Z,43.97
2018-04-11T17:24:27.169Z,44.07
2018-04-11T17:27:06.544Z,44.83
2018-04-11T17:29:46.734Z,44.77
2018-04-11T17:32:14.248Z,44.13
2018-04-11T17:34:41.757Z,42.80
2018-04-11T17:37:09.391Z,44.93
2018-04-11T17:39:38.585Z,45.37
2018-04-11T17:42:06.900Z,46.60
2018-04-11T17:44:34.395Z,44.57
2018-04-11T17:47:01.999Z,46.90
2018-04-11T17:49:30.323Z,45.37
2018-04-11T17:51:57.900Z,44.77
2018-04-11T17:54:25.433Z,45.47
2018-04-11T17:56:52.932Z,47.17
2018-04-11T17:59:20.457Z,45.67
2018-04-11T18:01:48.049Z,48.07
2018-04-11T18:04:16.311Z,46.50
2018-04-11T18:06:43.831Z,47.53
2018-04-11T18:09:11.380Z,50.47
2018-04-11T18:11:38.917Z,48.23
2018-04-11T18:14:07.208Z,48.10
2018-04-11T18:16:35.492Z,47.37
2018-04-11T18:19:02.989Z,47.37
2018-04-11T18:21:30.549Z,45.03
2018-04-11T18:23:58.093Z,47.37
2018-04-11T18:26:26.164Z,46.00
2018-04-11T18:28:53.682Z,47.93
2018-04-11T18:31:24.116Z,47.30
2018-04-11T18:33:51.720Z,46.43
2018-04-11T18:36:19.293Z,48.77
2018-04-11T18:38:46.876Z,46.97
2018-04-11T18:41:14.414Z,44.53
2018-04-11T18:43:42.670Z,46.90
2018-04-11T18:46:11.068Z,46.00
2018-04-11T18:48:38.644Z,46.80
2018-04-11T18:51:06.135Z,45.63
2018-04-11T18:53:34.516Z,44.47
2018-04-11T18:56:02.802Z,46.00
2018-04-11T18:58:30.326Z,44.40
2018-04-11T19:00:57.870Z,44.47
2018-04-11T19:03:25.359Z,44.83
2018-04-11T19:05:53.639Z,42.83
2018-04-11T19:08:21.909Z,43.20
2018-04-11T19:10:50.295Z,42.03
2018-04-11T19:13:17.958Z,40.87
2018-04-11T19:15:45.433Z,40.50
2018-04-11T19:18:12.918Z,37.80
2018-04-11T19:20:40.396Z,37.37
2018-04-11T19:23:07.928Z,37.27
2018-04-11T19:25:35.457Z,37.40
2018-04-11T19:28:03.711Z,37.30
2018-04-11T19:30:31.244Z,35.63
2018-04-11T19:32:58.715Z,33.33
2018-04-11T19:35:26.334Z,34.70
2018-04-11T19:37:53.916Z,32.83
2018-04-11T19:40:21.403Z,34.27
2018-04-11T19:42:48.890Z,33.63
2018-04-11T19:45:17.153Z,34.70
2018-04-11T19:47:45.441Z,34.57
2018-04-11T19:50:13.740Z,34.93
2018-04-11T19:52:41.235Z,34.00
2018-04-11T19:55:08.742Z,33.77
2018-04-11T19:57:36.235Z,35.23
2018-04-11T20:00:03.771Z,37.23
2018-04-11T20:02:31.307Z,39.63
2018-04-11T20:04:58.833Z,40.03
2018-04-11T20:07:26.433Z,40.23
2018-04-11T20:09:54.689Z,41.10
2018-04-11T20:12:22.989Z,41.13
2018-04-11T20:14:51.831Z,41.63
2018-04-11T20:17:19.303Z,42.23
2018-04-11T20:19:46.795Z,42.20
2018-04-11T20:22:15.178Z,44.33
2018-04-11T20:24:42.778Z,44.33
2018-04-11T20:27:10.283Z,44.17
2018-04-11T20:29:37.839Z,44.67
2018-04-11T20:32:06.101Z,44.67
2018-04-11T20:34:33.582Z,45.80
2018-04-11T20:37:01.884Z,46.50
2018-04-11T20:39:29.422Z,47.80
2018-04-11T20:41:57.666Z,46.00
2018-04-11T20:44:25.232Z,45.50
2018-04-11T20:46:52.851Z,46.10
2018-04-11T20:49:20.335Z,45.10
2018-04-11T20:51:48.085Z,47.17
2018-04-11T20:54:15.962Z,46.73
2018-04-11T20:56:44.238Z,45.20
2018-04-11T20:59:11.730Z,46.77
2018-04-11T21:01:40.024Z,46.33
2018-04-11T21:04:08.326Z,46.47
2018-04-11T21:06:35.906Z,46.00
2018-04-11T21:09:03.685Z,44.53
2018-04-11T21:11:31.218Z,46.83
2018-04-11T21:13:58.951Z,46.63
2018-04-11T21:16:26.693Z,46.83
2018-04-11T21:18:55.139Z,48.27
2018-04-11T21:21:22.815Z,47.10
2018-04-11T21:23:50.467Z,48.20
2018-04-11T21:26:18.066Z,46.77
2018-04-11T21:28:45.699Z,47.00
2018-04-11T21:31:13.451Z,47.43
2018-04-11T21:33:41.366Z,48.27
2018-04-11T21:36:09.717Z,47.30
2018-04-11T21:38:37.369Z,48.43
2018-04-11T21:41:05.296Z,48.53
2018-04-11T21:43:33.000Z,47.83
2018-04-11T21:46:02.167Z,48.00
2018-04-11T21:48:29.696Z,48.27
2018-04-11T21:50:58.074Z,47.93
2018-04-11T21:53:25.685Z,47.67
2018-04-11T21:55:53.191Z,48.33
2018-04-11T21:58:20.830Z,48.27
2018-04-11T22:00:48.345Z,49.23
2018-04-11T22:03:15.886Z,47.53
2018-04-11T22:05:43.569Z,46.73
2018-04-11T22:08:11.096Z,44.13
2018-04-11T22:10:39.346Z,43.13
2018-04-11T22:13:07.076Z,47.30
2018-04-11T22:15:34.621Z,45.60
2018-04-11T22:18:02.141Z,45.27
2018-04-11T22:20:29.731Z,42.27
2018-04-11T22:22:57.261Z,44.20
2018-04-11T22:25:24.782Z,43.03
2018-04-11T22:27:52.348Z,41.83
2018-04-11T22:30:19.911Z,43.00
2018-04-11T22:32:47.428Z,40.57
2018-04-11T22:35:15.594Z,39.80
2018-04-11T22:37:43.852Z,41.37
2018-04-11T22:40:11.330Z,39.67
2018-04-11T22:42:38.915Z,41.87
2018-04-11T22:45:06.438Z,42.00
2018-04-11T22:47:34.809Z,41.57
2018-04-11T22:50:02.362Z,39.50
2018-04-11T22:52:29.859Z,39.10
2018-04-11T22:54:57.520Z,38.50
2018-04-11T22:57:25.376Z,39.43
2018-04-11T22:59:52.943Z,37.43
2018-04-11T23:02:20.466Z,38.07
2018-04-11T23:04:48.022Z,37.87
2018-04-11T23:07:15.637Z,37.43
2018-04-11T23:09:43.181Z,37.97
2018-04-11T23:12:11.450Z,36.80
2018-04-11T23:14:39.726Z,37.07
2018-04-11T23:17:07.338Z,36.60
2018-04-11T23:19:34.905Z,35.97
2018-04-11T23:22:02.404Z,35.77
2018-04-11T23:24:31.327Z,36.33
2018-04-11T23:26:59.039Z,35.10
2018-04-11T23:29:26.592Z,35.00
2018-04-11T23:31:54.094Z,37.67
2018-04-11T23:34:21.659Z,38.20
2018-04-11T23:36:49.683Z,37.80
2018-04-11T23:39:17.254Z,38.60
2018-04-11T23:41:44.747Z,37.33
2018-04-11T23:44:12.255Z,38.87
2018-04-11T23:46:39.884Z,40.47
2018-04-11T23:49:07.375Z,41.40
2018-04-11T23:51:34.916Z,39.37
2018-04-11T23:54:02.397Z,39.93
2018-04-11T23:56:29.983Z,40.43
2018-04-11T23:58:58.798Z,40.00
